createdAt,value
2023-04-07T00:01:26.618Z,87.10
2023-04-07T00:06:25.812Z,139.80
2023-04-07T00:11:25.071Z,174.20
2023-04-07T00:16:24.348Z,165.30
2023-04-07T00:21:24.637Z,101.00
2023-04-07T00:26:22.863Z,134.40
2023-04-07T00:31:23.156Z,285.60
2023-04-07T00:36:21.474Z,226.20
2023-04-07T00:41:20.751Z,168.40
2023-04-07T00:46:20.080Z,154.90
2023-04-07T00:51:19.343Z,143.40
2023-04-07T00:56:18.619Z,138.40
2023-04-07T01:01:19.894Z,120.00
2023-04-07T01:06:18.128Z,154.50
2023-04-07T01:11:17.414Z,103.90
2023-04-07T01:16:15.693Z,98.60
2023-04-07T01:21:14.960Z,72.80
2023-04-07T01:26:14.226Z,57.40
2023-04-07T01:31:14.581Z,68.00
2023-04-07T01:36:13.661Z,67.00
2023-04-07T01:41:11.922Z,62.30
2023-04-07T01:46:11.187Z,58.40
2023-04-07T01:51:10.482Z,54.30
2023-04-07T01:56:09.725Z,50.30
2023-04-07T02:01:11.038Z,51.10
2023-04-07T02:06:09.358Z,42.40
2023-04-07T02:11:07.448Z,45.50
2023-04-07T02:16:07.820Z,39.50
2023-04-07T02:21:07.897Z,33.50
2023-04-07T02:26:05.172Z,33.00
2023-04-07T02:31:04.472Z,32.90
2023-04-07T02:36:03.745Z,34.30
2023-04-07T02:41:05.031Z,32.40
2023-04-07T02:46:03.323Z,30.00
2023-04-07T02:51:01.599Z,26.90
2023-04-07T02:56:00.897Z,27.50
2023-04-07T03:01:01.219Z,22.40
2023-04-07T03:05:59.454Z,22.70
2023-04-07T03:11:00.685Z,28.90
2023-04-07T03:15:58.968Z,25.70
2023-04-07T03:20:59.253Z,23.40
2023-04-07T03:25:57.648Z,16.80
2023-04-07T03:30:56.742Z,20.60
2023-04-07T03:35:55.048Z,16.80
2023-04-07T03:40:55.299Z,15.90
2023-04-07T03:45:53.640Z,17.20
2023-04-07T03:50:52.681Z,12.30
2023-04-07T03:55:53.950Z,14.60
2023-04-07T04:00:51.211Z,14.20
2023-04-07T04:05:52.504Z,13.30
2023-04-07T04:10:49.798Z,14.00
2023-04-07T04:15:49.159Z,12.90
2023-04-07T04:20:49.245Z,11.60
2023-04-07T04:25:47.536Z,11.60
2023-04-07T04:30:47.814Z,12.00
2023-04-07T04:35:47.064Z,9.60
2023-04-07T04:40:45.359Z,9.20
2023-04-07T04:45:44.659Z,9.80
2023-04-07T04:50:43.931Z,9.40
2023-04-07T04:55:44.216Z,11.50
2023-04-07T05:00:43.538Z,8.40
2023-04-07T05:05:43.644Z,10.30
2023-04-07T05:10:40.923Z,8.80
2023-04-07T05:15:40.160Z,7.40
2023-04-07T05:20:40.453Z,7.10
2023-04-07T05:25:38.724Z,8.20
2023-04-07T05:30:38.073Z,7.80
2023-04-07T05:35:38.146Z,8.20
2023-04-07T05:40:37.818Z,6.90
2023-04-07T05:45:35.663Z,6.70
2023-04-07T05:50:34.765Z,5.80
2023-04-07T05:55:35.022Z,5.40
2023-04-07T06:00:33.307Z,5.10
2023-04-07T06:05:32.583Z,4.30
2023-04-07T06:10:33.855Z,5.30
2023-04-07T06:15:33.106Z,5.00
2023-04-07T06:20:31.357Z,4.80
2023-04-07T06:25:30.645Z,4.10
2023-04-07T06:30:28.923Z,4.30
2023-04-07T06:35:29.056Z,4.70
2023-04-07T06:40:27.332Z,5.20
2023-04-07T06:45:26.596Z,4.80
2023-04-07T06:50:26.833Z,5.60
2023-04-07T06:55:25.133Z,5.20
2023-04-07T07:00:24.367Z,4.20
2023-04-07T07:05:23.616Z,3.90
2023-04-07T07:10:23.912Z,3.80
2023-04-07T07:15:23.208Z,3.50
2023-04-07T07:20:21.625Z,3.70
2023-04-07T07:25:21.713Z,3.80
2023-04-07T07:30:19.997Z,3.60
2023-04-07T07:35:20.311Z,3.50
2023-04-07T07:40:20.643Z,3.50
2023-04-07T07:45:19.150Z,4.30
2023-04-07T07:50:19.282Z,2.80
2023-04-07T07:55:17.391Z,4.60
2023-04-07T08:00:16.634Z,4.90
2023-04-07T08:05:16.914Z,5.20
2023-04-07T08:10:15.165Z,4.60
2023-04-07T08:15:13.428Z,4.00
2023-04-07T08:20:12.694Z,5.20
2023-04-07T08:25:11.992Z,5.20
2023-04-07T08:30:12.242Z,5.00
2023-04-07T08:35:10.568Z,3.30
2023-04-07T08:40:09.818Z,32.00
2023-04-07T08:45:09.105Z,106.30
2023-04-07T08:50:09.381Z,125.60
2023-04-07T08:55:08.626Z,84.80
2023-04-07T09:00:07.892Z,49.50
2023-04-07T09:05:07.217Z,48.80
2023-04-07T09:10:06.471Z,39.70
2023-04-07T09:15:04.740Z,213.50
2023-04-07T09:20:04.008Z,96.30
2023-04-07T09:25:04.274Z,399.40
2023-04-07T09:30:02.527Z,261.90
2023-04-07T09:35:02.805Z,158.30
2023-04-07T09:40:03.077Z,215.40
2023-04-07T09:45:00.331Z,244.70
2023-04-07T09:50:00.588Z,112.00
2023-04-07T09:54:58.841Z,112.40
2023-04-07T10:00:00.123Z,184.30
2023-04-07T10:04:57.355Z,84.40
2023-04-07T10:09:57.669Z,154.40
2023-04-07T10:14:56.941Z,224.60
2023-04-07T10:19:57.250Z,148.30
2023-04-07T10:24:54.539Z,95.90
2023-04-07T10:29:53.859Z,153.50
2023-04-07T10:34:53.167Z,120.40
2023-04-07T10:39:52.474Z,138.40
2023-04-07T10:44:52.759Z,138.10
2023-04-07T10:49:53.034Z,64.70
2023-04-07T10:54:50.313Z,40.70
2023-04-07T10:59:49.655Z,41.30
2023-04-07T11:04:49.827Z,27.80
2023-04-07T11:09:47.978Z,30.30
2023-04-07T11:14:46.278Z,17.40
2023-04-07T11:19:47.454Z,18.40
2023-04-07T11:24:46.722Z,12.90
2023-04-07T11:29:45.901Z,15.60
2023-04-07T11:34:45.107Z,11.20
2023-04-07T11:39:45.275Z,9.40
2023-04-07T11:44:42.413Z,8.30
2023-04-07T11:49:41.570Z,6.70
2023-04-07T11:54:41.731Z,8.20
2023-04-07T11:59:39.879Z,6.40
2023-04-07T12:04:39.191Z,7.60
2023-04-07T12:09:38.444Z,7.70
2023-04-07T12:14:37.576Z,5.00
2023-04-07T12:19:36.987Z,4.80
2023-04-07T12:24:36.170Z,5.60
2023-04-07T12:29:35.310Z,4.70
2023-04-07T12:34:34.433Z,4.60
2023-04-07T12:39:34.804Z,3.80
2023-04-07T12:44:32.923Z,4.50
2023-04-07T12:49:32.269Z,4.60
2023-04-07T12:54:31.593Z,3.90
2023-04-07T12:59:31.028Z,6.50
2023-04-07T13:04:31.309Z,3.20
2023-04-07T13:09:30.397Z,4.20
2023-04-07T13:14:28.501Z,5.30
2023-04-07T13:19:27.647Z,4.30
2023-04-07T13:24:26.790Z,4.10
2023-04-07T13:29:25.922Z,3.90
2023-04-07T13:34:26.249Z,4.00
2023-04-07T13:39:26.593Z,5.00
2023-04-07T13:44:24.913Z,3.20
2023-04-07T13:49:25.278Z,3.10
2023-04-07T13:54:24.377Z,3.00
2023-04-07T13:59:22.745Z,3.30
2023-04-07T14:04:20.918Z,7.30
2023-04-07T14:09:22.011Z,95.10
2023-04-07T14:14:19.357Z,61.30
2023-04-07T14:19:18.506Z,86.80
2023-04-07T14:24:17.639Z,58.20
2023-04-07T14:29:20.092Z,35.10
2023-04-07T14:34:17.221Z,24.00
2023-04-07T14:39:15.415Z,16.70
2023-04-07T14:44:14.684Z,11.40
2023-04-07T14:49:14.053Z,9.70
2023-04-07T14:54:13.126Z,5.20
2023-04-07T14:59:12.305Z,4.90
2023-04-07T15:04:10.991Z,6.10
2023-04-07T15:09:10.900Z,10.70
2023-04-07T15:14:09.206Z,3.40
2023-04-07T15:19:09.518Z,2.30
2023-04-07T15:24:08.734Z,1.70
2023-04-07T15:29:08.066Z,2.40
2023-04-07T15:34:06.380Z,2.30
2023-04-07T15:39:06.618Z,4.10
2023-04-07T15:44:04.888Z,5.50
2023-04-07T15:49:04.970Z,5.40
2023-04-07T15:54:06.260Z,3.50
2023-04-07T15:59:04.524Z,133.30
2023-04-07T16:04:04.901Z,98.00
2023-04-07T16:09:01.995Z,112.20
2023-04-07T16:14:01.294Z,65.20
2023-04-07T16:19:00.751Z,61.20
2023-04-07T16:23:59.810Z,54.90
2023-04-07T16:29:00.053Z,49.30
2023-04-07T16:33:58.320Z,46.60
2023-04-07T16:38:57.595Z,42.10
2023-04-07T16:43:56.970Z,30.30
2023-04-07T16:48:56.007Z,30.90
2023-04-07T16:53:55.271Z,23.80
2023-04-07T16:58:54.514Z,21.20
2023-04-07T17:03:54.903Z,13.50
2023-04-07T17:08:57.008Z,18.50
2023-04-07T17:13:52.222Z,6.90
2023-04-07T17:18:52.463Z,6.70
2023-04-07T17:23:50.926Z,72.10
2023-04-07T17:28:50.956Z,64.30
2023-04-07T17:33:48.519Z,45.90
2023-04-07T17:38:48.501Z,22.70
2023-04-07T17:43:48.026Z,86.00
2023-04-07T17:48:47.125Z,56.50
2023-04-07T17:53:46.566Z,63.60
2023-04-07T17:58:46.735Z,57.60
2023-04-07T18:03:43.997Z,167.70
2023-04-07T18:08:46.052Z,95.00
2023-04-07T18:13:43.301Z,78.00
2023-04-07T18:18:43.594Z,60.80
2023-04-07T18:23:43.887Z,74.80
2023-04-07T18:28:41.146Z,59.70
2023-04-07T18:33:40.465Z,67.80
2023-04-07T18:38:39.754Z,45.70
2023-04-07T18:43:40.048Z,28.60
2023-04-07T18:48:39.352Z,24.50
2023-04-07T18:53:37.616Z,22.10
2023-04-07T18:58:36.973Z,18.00
2023-04-07T19:03:36.404Z,18.70
2023-04-07T19:08:35.602Z,21.10
2023-04-07T19:13:35.623Z,19.60
2023-04-07T19:18:33.918Z,13.70
2023-04-07T19:23:33.333Z,13.80
2023-04-07T19:28:33.600Z,10.20
2023-04-07T19:33:33.646Z,8.60
2023-04-07T19:38:30.963Z,6.70
2023-04-07T19:43:32.214Z,7.10
2023-04-07T19:48:30.456Z,117.10
2023-04-07T19:53:30.685Z,88.80
2023-04-07T19:58:28.932Z,74.30
2023-04-07T20:03:27.272Z,93.50
2023-04-07T20:08:26.360Z,144.90
2023-04-07T20:13:26.643Z,109.20
2023-04-07T20:18:24.111Z,91.20
2023-04-07T20:23:24.229Z,107.20
2023-04-07T20:28:23.501Z,41.50
2023-04-07T20:33:23.166Z,61.90
2023-04-07T20:38:23.049Z,65.90
2023-04-07T20:43:21.324Z,24.60
2023-04-07T20:48:21.554Z,23.30
2023-04-07T20:53:20.811Z,22.30
2023-04-07T20:58:20.034Z,20.80
2023-04-07T21:03:19.460Z,156.20
2023-04-07T21:08:17.684Z,91.10
2023-04-07T21:13:16.790Z,77.30
2023-04-07T21:18:16.042Z,92.20
2023-04-07T21:23:15.332Z,128.70
2023-04-07T21:28:14.603Z,107.80
2023-04-07T21:33:13.891Z,75.40
2023-04-07T21:38:14.175Z,62.30
2023-04-07T21:43:13.433Z,56.20
2023-04-07T21:48:11.698Z,58.90
2023-04-07T21:53:10.996Z,46.00
2023-04-07T21:58:11.270Z,93.30
2023-04-07T22:03:10.688Z,123.10
2023-04-07T22:08:09.781Z,84.60
2023-04-07T22:13:10.088Z,110.40
2023-04-07T22:18:08.385Z,162.00
2023-04-07T22:23:07.651Z,115.80
2023-04-07T22:28:05.912Z,164.70
2023-04-07T22:33:05.404Z,221.80
2023-04-07T22:38:06.532Z,188.30
2023-04-07T22:43:03.791Z,121.10
2023-04-07T22:48:05.075Z,189.20
2023-04-07T22:53:03.368Z,134.60
2023-04-07T22:58:01.654Z,126.50
2023-04-07T23:03:01.059Z,103.20
2023-04-07T23:08:00.235Z,72.90
2023-04-07T23:13:01.541Z,92.60
2023-04-07T23:17:58.841Z,101.00
2023-04-07T23:22:58.089Z,93.80
2023-04-07T23:27:58.421Z,77.20
2023-04-07T23:32:57.709Z,121.50
2023-04-07T23:37:59.973Z,93.80
2023-04-07T23:42:56.230Z,73.00
2023-04-07T23:47:53.592Z,101.10
2023-04-07T23:52:54.743Z,53.10
2023-04-07T23:57:52.898Z,70.40
